createdAt,value
2018-09-11T00:02:11.634Z,15.80
2018-09-11T00:04:40.267Z,15.30
2018-09-11T00:07:08.806Z,14.90
2018-09-11T00:09:37.463Z,15.30
2018-09-11T00:12:06.009Z,15.50
2018-09-11T00:14:34.676Z,15.40
2018-09-11T00:17:03.284Z,15.50
2018-09-11T00:19:31.786Z,15.10
2018-09-11T00:22:00.902Z,15.00
2018-09-11T00:24:29.332Z,14.60
2018-09-11T00:26:57.780Z,14.30
2018-09-11T00:29:26.504Z,15.20
2018-09-11T00:31:55.089Z,14.80
2018-09-11T00:34:23.549Z,14.50
2018-09-11T00:36:52.136Z,14.40
2018-09-11T00:39:20.594Z,14.20
2018-09-11T00:41:49.051Z,14.50
2018-09-11T00:44:17.484Z,14.50
2018-09-11T00:46:46.097Z,14.60
2018-09-11T00:49:14.498Z,14.60
2018-09-11T00:51:43.140Z,14.60
2018-09-11T00:54:11.600Z,14.40
2018-09-11T00:56:39.999Z,14.50
2018-09-11T00:59:08.383Z,15.00
2018-09-11T01:01:36.851Z,15.40
2018-09-11T01:04:05.393Z,15.40
2018-09-11T01:06:33.870Z,15.60
2018-09-11T01:09:02.320Z,15.50
2018-09-11T01:11:30.769Z,15.50
2018-09-11T01:13:59.330Z,15.60
2018-09-11T01:16:27.847Z,15.60
2018-09-11T01:18:56.375Z,15.00
2018-09-11T01:21:24.915Z,14.70
2018-09-11T01:23:53.459Z,14.40
2018-09-11T01:26:21.914Z,14.40
2018-09-11T01:28:50.435Z,14.40
2018-09-11T01:31:18.891Z,14.80
2018-09-11T01:33:47.353Z,15.00
2018-09-11T01:36:15.817Z,15.10
2018-09-11T01:38:44.211Z,15.20
2018-09-11T01:41:12.803Z,15.30
2018-09-11T01:43:41.147Z,14.50
2018-09-11T01:46:09.678Z,14.40
2018-09-11T01:48:38.159Z,14.00
2018-09-11T01:51:06.846Z,13.60
2018-09-11T01:53:35.221Z,13.90
2018-09-11T01:56:03.810Z,14.40
2018-09-11T01:58:32.231Z,14.70
2018-09-11T02:01:00.656Z,13.70
2018-09-11T02:03:29.128Z,13.10
2018-09-11T02:05:57.539Z,12.70
2018-09-11T02:08:26.009Z,13.30
2018-09-11T02:10:54.475Z,13.80
2018-09-11T02:13:22.891Z,13.20
2018-09-11T02:15:51.351Z,12.80
2018-09-11T02:18:19.762Z,13.60
2018-09-11T02:20:48.224Z,13.10
2018-09-11T02:23:16.686Z,14.00
2018-09-11T02:25:45.116Z,14.00
2018-09-11T02:28:13.568Z,13.40
2018-09-11T02:30:41.962Z,13.70
2018-09-11T02:33:10.346Z,14.20
2018-09-11T02:35:38.726Z,14.50
2018-09-11T02:38:07.158Z,14.60
2018-09-11T02:40:35.539Z,14.70
2018-09-11T02:43:03.963Z,14.80
2018-09-11T02:45:32.406Z,14.70
2018-09-11T02:48:00.752Z,14.20
2018-09-11T02:50:29.140Z,14.50
2018-09-11T02:52:57.571Z,14.20
2018-09-11T02:55:26.112Z,14.00
2018-09-11T02:57:54.583Z,14.30
2018-09-11T03:00:23.004Z,13.50
2018-09-11T03:02:51.485Z,13.60
2018-09-11T03:05:19.892Z,13.50
2018-09-11T03:07:48.274Z,13.00
2018-09-11T03:10:16.710Z,12.90
2018-09-11T03:12:45.083Z,12.70
2018-09-11T03:15:13.511Z,13.10
2018-09-11T03:17:41.977Z,12.40
2018-09-11T03:20:10.387Z,12.20
2018-09-11T03:22:38.729Z,12.10
2018-09-11T03:25:07.163Z,12.20
2018-09-11T03:27:35.658Z,12.10
2018-09-11T03:30:04.334Z,11.80
2018-09-11T03:32:32.726Z,11.90
2018-09-11T03:35:01.275Z,11.80
2018-09-11T03:37:29.843Z,11.70
2018-09-11T03:39:58.314Z,12.50
2018-09-11T03:42:27.510Z,12.20
2018-09-11T03:44:55.926Z,12.30
2018-09-11T03:47:24.359Z,12.20
2018-09-11T03:49:52.783Z,12.10
2018-09-11T03:52:21.177Z,12.80
2018-09-11T03:54:49.647Z,13.20
2018-09-11T03:57:18.150Z,13.10
2018-09-11T03:59:46.522Z,12.30
2018-09-11T04:02:15.025Z,12.20
2018-09-11T04:04:43.483Z,12.30
2018-09-11T04:07:11.894Z,12.10
2018-09-11T04:09:40.396Z,12.60
2018-09-11T04:12:08.814Z,12.90
2018-09-11T04:14:37.242Z,12.30
2018-09-11T04:17:05.703Z,11.80
2018-09-11T04:19:34.035Z,11.90
2018-09-11T04:22:02.624Z,12.30
2018-09-11T04:24:31.017Z,11.80
2018-09-11T04:26:59.427Z,11.50
2018-09-11T04:29:27.837Z,11.80
2018-09-11T04:31:56.270Z,11.70
2018-09-11T04:34:24.735Z,11.90
2018-09-11T04:36:53.162Z,12.10
2018-09-11T04:39:21.579Z,11.90
2018-09-11T04:41:50.006Z,12.20
2018-09-11T04:44:18.561Z,12.00
2018-09-11T04:46:47.047Z,12.00
2018-09-11T04:49:15.478Z,12.30
2018-09-11T04:51:43.838Z,11.80
2018-09-11T04:54:12.195Z,11.50
2018-09-11T04:56:40.650Z,12.10
2018-09-11T04:59:09.007Z,12.40
2018-09-11T05:01:37.498Z,13.10
2018-09-11T05:04:05.932Z,13.50
2018-09-11T05:06:34.277Z,12.80
2018-09-11T05:09:02.688Z,13.00
2018-09-11T05:11:31.156Z,12.90
2018-09-11T05:13:59.551Z,13.40
2018-09-11T05:16:27.965Z,13.50
2018-09-11T05:18:56.359Z,13.50
2018-09-11T05:21:24.747Z,13.00
2018-09-11T05:23:53.162Z,12.40
2018-09-11T05:26:21.638Z,12.30
2018-09-11T05:28:49.979Z,12.00
2018-09-11T05:31:18.454Z,12.10
2018-09-11T05:33:46.801Z,12.00
2018-09-11T05:36:15.113Z,12.20
2018-09-11T05:38:43.507Z,13.20
2018-09-11T05:41:11.906Z,13.70
2018-09-11T05:43:40.305Z,13.20
2018-09-11T05:46:08.651Z,13.10
2018-09-11T05:48:37.010Z,12.90
2018-09-11T05:51:05.619Z,13.30
2018-09-11T05:53:34.093Z,13.80
2018-09-11T05:56:02.457Z,14.80
2018-09-11T05:58:31.829Z,15.70
2018-09-11T06:01:00.170Z,16.60
2018-09-11T06:03:28.630Z,17.30
2018-09-11T06:05:57.082Z,17.50
2018-09-11T06:08:25.568Z,17.70
2018-09-11T06:10:54.020Z,18.20
2018-09-11T06:13:22.443Z,18.40
2018-09-11T06:15:50.793Z,18.60
2018-09-11T06:18:19.212Z,18.50
2018-09-11T06:20:47.650Z,18.70
2018-09-11T06:23:16.046Z,18.90
2018-09-11T06:25:44.490Z,17.70
2018-09-11T06:28:12.917Z,17.20
2018-09-11T06:30:41.402Z,17.40
2018-09-11T06:33:09.887Z,17.70
2018-09-11T06:35:38.256Z,18.00
2018-09-11T06:38:06.786Z,17.90
2018-09-11T06:40:35.175Z,18.30
2018-09-11T06:43:03.629Z,18.90
2018-09-11T06:45:32.188Z,19.30
2018-09-11T06:48:00.586Z,19.40
2018-09-11T06:50:29.122Z,19.80
2018-09-11T06:52:57.544Z,19.40
2018-09-11T06:55:26.529Z,20.30
2018-09-11T06:57:54.906Z,20.40
2018-09-11T07:00:23.382Z,20.90
2018-09-11T07:02:52.110Z,20.70
2018-09-11T07:05:20.548Z,21.30
2018-09-11T07:07:48.996Z,21.00
2018-09-11T07:10:17.370Z,19.90
2018-09-11T07:12:45.786Z,21.00
2018-09-11T07:15:14.230Z,22.00
2018-09-11T07:17:42.579Z,22.30
2018-09-11T07:20:11.168Z,22.50
2018-09-11T07:22:39.275Z,22.20
2018-09-11T07:25:07.862Z,21.50
2018-09-11T07:27:36.359Z,21.70
2018-09-11T07:30:04.865Z,22.80
2018-09-11T07:32:33.410Z,22.80
2018-09-11T07:35:01.839Z,22.80
2018-09-11T07:37:30.399Z,22.80
2018-09-11T07:40:00.023Z,22.50
2018-09-11T07:42:28.529Z,23.20
2018-09-11T07:44:57.039Z,22.70
2018-09-11T07:47:26.128Z,22.70
2018-09-11T07:49:54.955Z,22.40
2018-09-11T07:52:23.371Z,23.10
2018-09-11T07:54:51.737Z,22.60
2018-09-11T07:57:20.205Z,23.40
2018-09-11T07:59:49.720Z,23.80
2018-09-11T08:02:18.160Z,22.60
2018-09-11T08:04:46.514Z,23.20
2018-09-11T08:07:15.856Z,23.90
2018-09-11T08:09:44.235Z,23.80
2018-09-11T08:12:12.609Z,23.90
2018-09-11T08:14:40.921Z,23.60
2018-09-11T08:17:09.291Z,23.60
2018-09-11T08:19:37.995Z,23.20
2018-09-11T08:22:06.571Z,23.80
2018-09-11T08:24:34.940Z,23.90
2018-09-11T08:27:03.386Z,23.90
2018-09-11T08:29:31.837Z,23.60
2018-09-11T08:32:00.290Z,23.70
2018-09-11T08:34:28.825Z,24.00
2018-09-11T08:36:57.098Z,24.30
2018-09-11T08:39:25.630Z,24.30
2018-09-11T08:41:53.958Z,24.10
2018-09-11T08:44:22.314Z,23.60
2018-09-11T08:46:50.863Z,23.60
2018-09-11T08:49:19.323Z,23.70
2018-09-11T08:51:47.600Z,23.70
2018-09-11T08:54:15.907Z,23.80
2018-09-11T08:56:44.266Z,23.90
2018-09-11T08:59:12.739Z,24.50
2018-09-11T09:01:41.066Z,25.00
2018-09-11T09:04:09.435Z,24.70
2018-09-11T09:06:37.822Z,24.60
2018-09-11T09:09:08.901Z,25.10
2018-09-11T09:11:37.729Z,25.10
2018-09-11T09:14:06.282Z,25.50
2018-09-11T09:16:34.664Z,25.00
2018-09-11T09:19:03.110Z,25.30
2018-09-11T09:21:31.780Z,25.30
2018-09-11T09:24:00.279Z,25.60
2018-09-11T09:26:28.843Z,25.70
2018-09-11T09:28:57.204Z,25.60
2018-09-11T09:31:25.874Z,25.50
2018-09-11T09:33:54.387Z,25.40
2018-09-11T09:36:22.874Z,25.60
2018-09-11T09:38:52.342Z,26.10
2018-09-11T09:41:20.758Z,26.10
2018-09-11T09:43:49.985Z,25.90
2018-09-11T09:46:18.366Z,25.90
2018-09-11T09:48:46.711Z,26.00
2018-09-11T09:51:15.199Z,25.10
2018-09-11T09:53:43.595Z,25.30
2018-09-11T09:56:12.168Z,25.20
2018-09-11T09:58:40.543Z,25.30
2018-09-11T10:01:15.087Z,25.20
2018-09-11T10:03:43.533Z,26.00
2018-09-11T10:06:11.922Z,26.20
2018-09-11T10:08:40.308Z,26.70
2018-09-11T10:11:08.732Z,26.80
2018-09-11T10:13:37.116Z,26.70
2018-09-11T10:16:05.467Z,27.00
2018-09-11T10:18:33.968Z,27.30
2018-09-11T10:21:02.366Z,27.70
2018-09-11T10:23:30.848Z,27.80
2018-09-11T10:25:59.246Z,27.80
2018-09-11T10:28:27.659Z,28.20
2018-09-11T10:30:56.006Z,28.40
2018-09-11T10:33:24.534Z,28.40
2018-09-11T10:35:53.042Z,28.00
2018-09-11T10:38:21.518Z,28.30
2018-09-11T10:40:49.960Z,26.70
2018-09-11T10:43:18.448Z,27.80
2018-09-11T10:45:46.924Z,28.50
2018-09-11T10:48:15.337Z,28.10
2018-09-11T10:50:43.787Z,27.70
2018-09-11T10:53:12.134Z,27.10
2018-09-11T10:55:40.508Z,27.30
2018-09-11T10:58:08.887Z,27.80
2018-09-11T11:00:37.390Z,28.70
2018-09-11T11:03:05.907Z,28.10
2018-09-11T11:05:34.376Z,28.00
2018-09-11T11:08:02.762Z,27.30
2018-09-11T11:10:31.246Z,28.90
2018-09-11T11:12:59.696Z,27.30
2018-09-11T11:15:28.150Z,28.60
2018-09-11T11:17:56.582Z,30.00
2018-09-11T11:20:24.963Z,30.70
2018-09-11T11:22:53.471Z,31.70
2018-09-11T11:25:21.842Z,32.10
2018-09-11T11:27:50.246Z,32.50
2018-09-11T11:30:18.670Z,32.90
2018-09-11T11:32:47.070Z,33.20
2018-09-11T11:35:15.467Z,32.20
2018-09-11T11:37:43.831Z,32.20
2018-09-11T11:40:12.236Z,32.70
2018-09-11T11:42:40.688Z,32.80
2018-09-11T11:45:09.366Z,32.50
2018-09-11T11:47:37.759Z,31.00
2018-09-11T11:50:07.005Z,30.60
2018-09-11T11:52:35.389Z,31.90
2018-09-11T11:55:03.904Z,32.60
2018-09-11T11:57:32.038Z,31.70
2018-09-11T12:00:00.436Z,30.50
2018-09-11T12:02:28.992Z,29.80
2018-09-11T12:04:57.391Z,31.70
2018-09-11T12:07:25.856Z,32.20
2018-09-11T12:09:54.198Z,32.50
2018-09-11T12:12:22.539Z,32.10
2018-09-11T12:14:50.890Z,32.90
2018-09-11T12:17:19.292Z,33.00
2018-09-11T12:19:47.783Z,31.50
2018-09-11T12:22:16.172Z,31.80
2018-09-11T12:24:44.569Z,31.80
2018-09-11T12:27:13.023Z,31.00
2018-09-11T12:29:41.429Z,32.20
2018-09-11T12:32:09.785Z,30.20
2018-09-11T12:34:38.216Z,30.20
2018-09-11T12:37:06.670Z,31.90
2018-09-11T12:39:35.130Z,32.60
2018-09-11T12:42:04.423Z,31.40
2018-09-11T12:44:32.815Z,32.40
2018-09-11T12:47:01.340Z,30.30
2018-09-11T12:49:29.613Z,31.50
2018-09-11T12:51:57.972Z,32.40
2018-09-11T12:54:26.346Z,32.30
2018-09-11T12:56:54.817Z,31.70
2018-09-11T12:59:23.303Z,29.90
2018-09-11T13:01:51.842Z,29.90
2018-09-11T13:04:20.218Z,29.80
2018-09-11T13:06:48.644Z,30.00
2018-09-11T13:09:17.097Z,29.20
2018-09-11T13:11:45.371Z,28.50
2018-09-11T13:14:13.990Z,27.90
2018-09-11T13:16:42.386Z,28.20
2018-09-11T13:19:10.832Z,28.50
2018-09-11T13:21:39.292Z,28.80
2018-09-11T13:24:07.679Z,28.80
2018-09-11T13:26:36.029Z,28.90
2018-09-11T13:29:04.540Z,29.20
2018-09-11T13:31:32.927Z,29.20
2018-09-11T13:34:01.256Z,28.90
2018-09-11T13:36:29.702Z,28.60
2018-09-11T13:38:58.204Z,28.60
2018-09-11T13:41:26.677Z,29.10
2018-09-11T13:43:55.150Z,29.30
2018-09-11T13:46:23.547Z,29.80
2018-09-11T13:48:51.994Z,29.80
2018-09-11T13:51:20.388Z,29.50
2018-09-11T13:53:48.846Z,28.70
2018-09-11T13:56:17.222Z,29.10
2018-09-11T13:58:45.630Z,28.90
2018-09-11T14:01:14.107Z,28.90
2018-09-11T14:03:42.601Z,29.00
2018-09-11T14:06:10.978Z,29.00
2018-09-11T14:08:39.564Z,29.00
2018-09-11T14:11:08.145Z,29.00
2018-09-11T14:13:36.543Z,28.80
2018-09-11T14:16:04.997Z,28.40
2018-09-11T14:18:33.442Z,28.70
2018-09-11T14:21:01.899Z,28.70
2018-09-11T14:23:30.327Z,28.50
2018-09-11T14:25:58.777Z,28.60
2018-09-11T14:28:27.186Z,28.70
2018-09-11T14:30:55.688Z,28.50
2018-09-11T14:33:24.150Z,28.40
2018-09-11T14:35:52.739Z,28.60
2018-09-11T14:38:21.235Z,28.60
2018-09-11T14:40:49.718Z,28.80
2018-09-11T14:43:18.126Z,28.90
2018-09-11T14:45:46.564Z,29.20
2018-09-11T14:48:15.062Z,29.20
2018-09-11T14:50:43.419Z,29.20
2018-09-11T14:53:11.905Z,29.10
2018-09-11T14:55:40.279Z,29.60
2018-09-11T14:58:08.666Z,29.60
2018-09-11T15:00:37.134Z,29.20
2018-09-11T15:03:05.627Z,29.40
2018-09-11T15:05:34.031Z,28.60
2018-09-11T15:08:02.543Z,29.00
2018-09-11T15:10:30.895Z,29.10
2018-09-11T15:12:59.279Z,28.50
2018-09-11T15:15:27.698Z,28.70
2018-09-11T15:17:56.126Z,28.90
2018-09-11T15:20:24.559Z,28.90
2018-09-11T15:22:53.066Z,28.60
2018-09-11T15:25:21.519Z,28.10
2018-09-11T15:27:49.976Z,27.90
2018-09-11T15:30:18.369Z,27.80
2018-09-11T15:32:46.812Z,27.80
2018-09-11T15:35:15.122Z,27.80
2018-09-11T15:37:43.551Z,27.60
2018-09-11T15:40:11.913Z,27.60
2018-09-11T15:42:40.299Z,27.40
2018-09-11T15:45:08.712Z,27.30
2018-09-11T15:47:37.114Z,27.20
2018-09-11T15:50:05.497Z,27.20
2018-09-11T15:52:33.934Z,27.10
2018-09-11T15:55:02.321Z,27.10
2018-09-11T15:57:30.648Z,27.10
2018-09-11T15:59:59.078Z,27.00
2018-09-11T16:02:27.423Z,26.90
2018-09-11T16:04:55.728Z,27.00
2018-09-11T16:07:24.142Z,27.00
2018-09-11T16:09:52.523Z,27.00
2018-09-11T16:12:20.880Z,27.00
2018-09-11T16:14:49.278Z,26.90
2018-09-11T16:17:17.723Z,26.90
2018-09-11T16:19:46.132Z,26.90
2018-09-11T16:22:14.624Z,26.90
2018-09-11T16:24:42.905Z,26.80
2018-09-11T16:27:11.345Z,26.90
2018-09-11T16:29:39.750Z,26.80
2018-09-11T16:32:08.034Z,26.60
2018-09-11T16:34:36.398Z,26.60
2018-09-11T16:37:04.979Z,26.60
2018-09-11T16:39:33.367Z,26.70
2018-09-11T16:42:01.725Z,26.60
2018-09-11T16:44:30.138Z,26.60
2018-09-11T16:46:58.547Z,26.50
2018-09-11T16:49:26.931Z,26.40
2018-09-11T16:51:55.351Z,26.40
2018-09-11T16:54:23.715Z,26.30
2018-09-11T16:56:52.046Z,26.30
2018-09-11T16:59:20.492Z,26.10
2018-09-11T17:01:48.870Z,26.20
2018-09-11T17:04:17.207Z,26.20
2018-09-11T17:06:45.597Z,26.20
2018-09-11T17:09:14.027Z,26.10
2018-09-11T17:11:42.447Z,26.10
2018-09-11T17:14:10.907Z,26.00
2018-09-11T17:16:39.242Z,26.00
2018-09-11T17:19:08.038Z,25.90
2018-09-11T17:21:37.420Z,25.90
2018-09-11T17:24:05.881Z,25.80
2018-09-11T17:26:34.318Z,25.80
2018-09-11T17:29:02.776Z,25.70
2018-09-11T17:31:31.102Z,25.60
2018-09-11T17:33:59.434Z,25.60
2018-09-11T17:36:27.859Z,25.50
2018-09-11T17:38:56.219Z,25.30
2018-09-11T17:41:24.605Z,25.10
2018-09-11T17:43:53.055Z,24.60
2018-09-11T17:46:21.662Z,24.30
2018-09-11T17:48:50.130Z,24.20
2018-09-11T17:51:18.527Z,24.10
2018-09-11T17:53:46.971Z,24.20
2018-09-11T17:56:15.427Z,24.20
2018-09-11T17:58:43.943Z,23.90
2018-09-11T18:01:14.479Z,23.90
2018-09-11T18:03:42.929Z,23.60
2018-09-11T18:06:11.376Z,23.50
2018-09-11T18:08:39.826Z,23.50
2018-09-11T18:11:08.268Z,23.10
2018-09-11T18:13:36.817Z,23.10
2018-09-11T18:16:05.309Z,22.70
2018-09-11T18:18:33.695Z,22.70
2018-09-11T18:21:02.125Z,22.90
2018-09-11T18:23:30.751Z,23.00
2018-09-11T18:25:59.261Z,23.00
2018-09-11T18:28:28.180Z,23.10
2018-09-11T18:30:56.921Z,22.90
2018-09-11T18:33:30.552Z,22.60
2018-09-11T18:35:58.884Z,22.50
2018-09-11T18:38:27.267Z,21.70
2018-09-11T18:40:55.646Z,21.70
2018-09-11T18:43:24.090Z,21.50
2018-09-11T18:45:52.566Z,21.30
2018-09-11T18:48:20.945Z,21.40
2018-09-11T18:50:49.441Z,21.10
2018-09-11T18:53:17.894Z,20.80
2018-09-11T18:55:46.291Z,20.70
2018-09-11T18:58:14.798Z,20.50
2018-09-11T19:00:43.287Z,20.50
2018-09-11T19:03:11.728Z,20.00
2018-09-11T19:05:40.075Z,19.90
2018-09-11T19:08:08.519Z,19.60
2018-09-11T19:10:36.942Z,19.90
2018-09-11T19:13:05.395Z,20.00
2018-09-11T19:15:33.855Z,19.80
2018-09-11T19:18:02.861Z,19.50
2018-09-11T19:20:31.239Z,19.10
2018-09-11T19:22:59.674Z,18.80
2018-09-11T19:25:28.148Z,18.80
2018-09-11T19:27:56.731Z,18.90
2018-09-11T19:30:25.177Z,18.90
2018-09-11T19:32:53.592Z,19.00
2018-09-11T19:35:22.025Z,19.00
2018-09-11T19:37:50.467Z,19.00
2018-09-11T19:40:18.846Z,18.80
2018-09-11T19:42:47.265Z,18.70
2018-09-11T19:45:15.809Z,18.50
2018-09-11T19:47:45.302Z,18.80
2018-09-11T19:50:13.822Z,18.70
2018-09-11T19:52:42.119Z,18.50
2018-09-11T19:55:10.489Z,18.60
2018-09-11T19:57:39.099Z,18.50
2018-09-11T20:00:07.742Z,18.20
2018-09-11T20:02:36.142Z,17.90
2018-09-11T20:05:04.700Z,17.70
2018-09-11T20:07:32.991Z,17.60
2018-09-11T20:10:01.506Z,17.60
2018-09-11T20:12:29.978Z,18.30
2018-09-11T20:14:58.383Z,17.90
2018-09-11T20:17:26.755Z,17.40
2018-09-11T20:19:55.292Z,17.20
2018-09-11T20:22:23.782Z,17.10
2018-09-11T20:24:52.360Z,17.20
2018-09-11T20:27:20.862Z,17.00
2018-09-11T20:29:49.275Z,16.90
2018-09-11T20:32:17.769Z,16.60
2018-09-11T20:34:46.314Z,16.80
2018-09-11T20:37:14.830Z,16.90
2018-09-11T20:39:43.405Z,17.30
2018-09-11T20:42:12.993Z,17.30
2018-09-11T20:44:41.558Z,17.30
2018-09-11T20:47:11.071Z,17.40
2018-09-11T20:49:39.556Z,17.70
2018-09-11T20:52:08.123Z,17.60
2018-09-11T20:54:36.670Z,17.20
2018-09-11T20:57:07.315Z,17.50
2018-09-11T20:59:35.756Z,17.10
2018-09-11T21:02:04.219Z,16.90
2018-09-11T21:04:32.665Z,17.20
2018-09-11T21:07:01.173Z,17.30
2018-09-11T21:09:29.696Z,17.00
2018-09-11T21:11:58.102Z,16.60
2018-09-11T21:14:26.532Z,16.40
2018-09-11T21:16:54.990Z,16.40
2018-09-11T21:19:23.356Z,16.80
2018-09-11T21:21:51.918Z,17.10
2018-09-11T21:24:20.367Z,16.80
2018-09-11T21:26:48.888Z,16.70
2018-09-11T21:29:17.299Z,16.20
2018-09-11T21:31:45.795Z,16.10
2018-09-11T21:34:14.207Z,16.30
2018-09-11T21:36:42.623Z,16.20
2018-09-11T21:39:12.215Z,16.30
2018-09-11T21:41:40.666Z,16.50
2018-09-11T21:44:09.119Z,16.00
2018-09-11T21:46:37.455Z,16.30
2018-09-11T21:49:06.005Z,15.70
2018-09-11T21:51:34.522Z,15.70
2018-09-11T21:54:03.059Z,15.80
2018-09-11T21:56:31.516Z,16.00
2018-09-11T21:58:59.908Z,16.30
2018-09-11T22:01:33.577Z,16.70
2018-09-11T22:04:02.866Z,16.00
2018-09-11T22:06:34.312Z,16.10
2018-09-11T22:09:02.742Z,15.60
2018-09-11T22:11:31.218Z,15.60
2018-09-11T22:13:59.620Z,15.40
2018-09-11T22:16:28.974Z,15.20
2018-09-11T22:18:57.438Z,15.30
2018-09-11T22:21:25.961Z,15.50
2018-09-11T22:23:54.352Z,15.70
2018-09-11T22:26:23.052Z,15.60
2018-09-11T22:28:51.454Z,16.20
2018-09-11T22:31:19.913Z,15.60
2018-09-11T22:33:48.437Z,15.60
2018-09-11T22:36:16.859Z,15.80
2018-09-11T22:38:45.275Z,15.50
2018-09-11T22:41:13.650Z,14.90
2018-09-11T22:43:42.089Z,14.80
2018-09-11T22:46:10.484Z,14.80
2018-09-11T22:48:38.945Z,14.60
2018-09-11T22:51:07.623Z,14.60
2018-09-11T22:53:36.268Z,14.80
2018-09-11T22:56:04.647Z,14.60
2018-09-11T22:58:33.081Z,14.70
2018-09-11T23:01:01.494Z,14.50
2018-09-11T23:03:29.887Z,14.20
2018-09-11T23:05:58.359Z,14.40
2018-09-11T23:08:26.803Z,14.80
2018-09-11T23:10:55.231Z,14.70
2018-09-11T23:13:23.716Z,14.70
2018-09-11T23:15:52.167Z,14.60
2018-09-11T23:18:20.623Z,14.40
2018-09-11T23:20:49.102Z,14.20
2018-09-11T23:23:17.579Z,14.30
2018-09-11T23:25:46.005Z,14.20
2018-09-11T23:28:14.469Z,14.70
2018-09-11T23:30:42.983Z,14.40
2018-09-11T23:33:11.369Z,14.00
2018-09-11T23:35:39.765Z,13.90
2018-09-11T23:38:08.163Z,13.90
2018-09-11T23:40:36.520Z,13.80
2018-09-11T23:43:05.543Z,13.70
2018-09-11T23:45:34.017Z,13.70
2018-09-11T23:48:02.527Z,13.90
2018-09-11T23:50:30.931Z,14.10
2018-09-11T23:52:59.410Z,14.00
2018-09-11T23:55:27.876Z,14.30
2018-09-11T23:57:56.268Z,14.50
